Time;durP1;ratioP1;P1;durP2;ratioP2;P2;SDS_P1;SDS_P2;PMS_P1;PMS_P2;Temp;Humidity;BMP_temperature;BMP_pressure;BME280_temperature;BME280_humidity;BME280_pressure;Samples;Min_cycle;Max_cycle;Signal;HPM_P1;HPM_P2
2023/08/27 00:02:21;;;;;;;10.67;3.53;;;12.30;99.90;;;;;;5012811;28;20176;-71
2023/08/27 00:04:47;;;;;;;10.03;3.23;;;12.20;99.90;;;;;;5012943;28;20185;-71
2023/08/27 00:07:12;;;;;;;9.70;3.60;;;12.30;99.90;;;;;;5012089;28;20180;-71
2023/08/27 00:09:38;;;;;;;8.17;3.20;;;12.20;99.90;;;;;;5009752;28;20211;-71
2023/08/27 00:12:04;;;;;;;6.77;3.00;;;12.20;99.90;;;;;;5012084;28;20196;-71
2023/08/27 00:14:30;;;;;;;6.60;2.93;;;12.30;99.90;;;;;;5011003;28;20172;-71
2023/08/27 00:16:56;;;;;;;3.67;2.50;;;12.30;99.90;;;;;;5012031;28;20219;-71
2023/08/27 00:19:21;;;;;;;4.33;2.43;;;12.30;99.90;;;;;;5012276;28;20192;-71
2023/08/27 00:21:48;;;;;;;5.00;3.10;;;12.30;99.90;;;;;;5012408;28;20185;-70
2023/08/27 00:24:13;;;;;;;8.83;2.93;;;12.30;99.90;;;;;;5012344;28;20177;-71
2023/08/27 00:26:39;;;;;;;8.33;3.20;;;12.30;99.90;;;;;;5011190;28;20263;-70
2023/08/27 00:29:04;;;;;;;7.83;3.10;;;12.30;99.90;;;;;;4994135;28;20290;-71
2023/08/27 00:31:30;;;;;;;4.77;2.97;;;12.40;99.90;;;;;;5012053;28;20247;-71
2023/08/27 00:33:56;;;;;;;6.53;3.57;;;12.30;99.90;;;;;;5012372;28;20199;-71
2023/08/27 00:36:21;;;;;;;7.67;3.50;;;12.30;99.90;;;;;;5012012;28;20555;-71
2023/08/27 00:38:47;;;;;;;5.60;3.30;;;12.40;99.90;;;;;;5011459;28;20583;-70
2023/08/27 00:41:13;;;;;;;7.67;3.10;;;12.40;99.90;;;;;;5010501;28;20188;-71
2023/08/27 00:43:40;;;;;;;6.07;3.23;;;12.40;99.90;;;;;;5012125;28;20256;-71
2023/08/27 00:46:06;;;;;;;6.53;3.03;;;12.40;99.90;;;;;;5011213;28;20177;-71
2023/08/27 00:48:31;;;;;;;5.77;2.80;;;12.40;99.90;;;;;;4994312;28;20657;-71
2023/08/27 00:50:57;;;;;;;5.87;3.07;;;12.40;99.90;;;;;;5010728;28;20200;-71
2023/08/27 00:53:22;;;;;;;4.20;2.80;;;12.40;99.90;;;;;;5012053;28;20626;-71
2023/08/27 00:55:48;;;;;;;7.70;3.00;;;12.30;99.90;;;;;;5010619;28;20260;-70
2023/08/27 00:58:13;;;;;;;8.67;3.57;;;12.30;99.90;;;;;;5011227;28;20640;-71
2023/08/27 01:00:39;;;;;;;8.57;3.13;;;12.30;99.90;;;;;;5011664;28;20616;-70
2023/08/27 01:03:05;;;;;;;9.33;2.77;;;12.30;99.90;;;;;;5011858;28;20615;-70
2023/08/27 01:05:30;;;;;;;4.60;2.90;;;12.30;99.90;;;;;;5011680;28;20652;-70
2023/08/27 01:07:56;;;;;;;5.60;2.77;;;12.30;99.90;;;;;;5011083;28;20172;-70
2023/08/27 01:10:44;;;;;;;7.03;2.63;;;12.20;99.90;;;;;;5011322;28;20196;-71
2023/08/27 01:13:13;;;;;;;5.07;2.70;;;12.20;99.90;;;;;;4995220;28;20538;-70
2023/08/27 01:15:38;;;;;;;8.40;2.63;;;12.10;99.90;;;;;;5010285;28;20164;-69
2023/08/27 01:18:04;;;;;;;10.07;2.87;;;12.10;99.90;;;;;;5009685;28;20180;-71
2023/08/27 01:20:30;;;;;;;5.00;2.60;;;12.10;99.90;;;;;;4993569;28;20197;-70
2023/08/27 01:22:56;;;;;;;7.27;2.97;;;12.10;99.90;;;;;;5010289;28;20210;-70
2023/08/27 01:25:31;;;;;;;6.07;2.90;;;12.10;99.90;;;;;;4992770;28;20581;-69
2023/08/27 01:27:59;;;;;;;8.03;2.63;;;12.10;99.90;;;;;;4994048;28;20191;-71
2023/08/27 01:30:28;;;;;;;4.67;2.33;;;12.10;99.90;;;;;;4993800;28;20208;-70
2023/08/27 01:33:03;;;;;;;4.57;2.47;;;12.10;99.90;;;;;;4994021;28;20196;-71
2023/08/27 01:35:29;;;;;;;4.27;2.43;;;12.10;99.90;;;;;;4994319;28;20160;-70
2023/08/27 01:37:55;;;;;;;4.17;2.67;;;12.10;99.90;;;;;;5009476;28;20172;-69
2023/08/27 01:40:20;;;;;;;3.20;2.30;;;12.10;99.90;;;;;;4993449;28;20573;-70
2023/08/27 01:42:47;;;;;;;4.03;2.70;;;12.10;99.90;;;;;;5011232;28;20664;-70
2023/08/27 01:45:12;;;;;;;5.20;2.50;;;12.00;99.90;;;;;;4993574;28;20179;-72
2023/08/27 01:47:38;;;;;;;5.50;2.50;;;12.10;99.90;;;;;;5010576;28;20577;-72
2023/08/27 01:50:05;;;;;;;3.80;2.50;;;12.10;99.90;;;;;;5011118;28;20246;-71
2023/08/27 01:52:31;;;;;;;5.70;2.53;;;12.10;99.90;;;;;;4993389;28;20203;-70
2023/08/27 01:54:57;;;;;;;3.07;2.13;;;12.10;99.90;;;;;;5010869;28;20661;-71
2023/08/27 01:57:22;;;;;;;7.57;2.83;;;12.10;99.90;;;;;;5010292;28;20208;-70
2023/08/27 01:59:48;;;;;;;6.30;2.40;;;12.10;99.90;;;;;;5009725;28;20216;-70
2023/08/27 02:02:13;;;;;;;4.00;2.63;;;12.00;99.90;;;;;;5009691;28;20180;-70
2023/08/27 02:04:39;;;;;;;6.87;2.40;;;12.00;99.90;;;;;;5009852;28;20176;-70
2023/08/27 02:07:04;;;;;;;7.47;2.47;;;12.00;99.90;;;;;;5010325;28;20208;-70
2023/08/27 02:09:30;;;;;;;5.20;2.50;;;12.00;99.90;;;;;;5010668;28;20231;-70
2023/08/27 02:11:55;;;;;;;8.20;2.67;;;12.00;99.90;;;;;;5010734;28;20662;-71
2023/08/27 02:14:21;;;;;;;9.53;3.20;;;12.00;99.90;;;;;;5009596;28;20552;-70
2023/08/27 02:16:46;;;;;;;5.03;2.70;;;12.10;99.90;;;;;;5010279;28;20181;-70
2023/08/27 02:19:12;;;;;;;9.93;3.20;;;12.00;99.90;;;;;;5010527;28;20571;-70
2023/08/27 02:21:38;;;;;;;5.67;2.90;;;12.10;99.90;;;;;;5009707;28;20669;-70
2023/08/27 02:24:04;;;;;;;8.07;3.03;;;12.00;99.90;;;;;;5010697;28;20545;-70
2023/08/27 02:26:29;;;;;;;7.57;2.83;;;12.00;99.90;;;;;;5010657;28;20188;-70
2023/08/27 02:28:55;;;;;;;5.13;2.60;;;12.00;99.90;;;;;;5009900;28;20235;-71
2023/08/27 02:31:20;;;;;;;10.17;3.10;;;12.00;99.90;;;;;;5009352;28;20258;-71
2023/08/27 02:33:46;;;;;;;5.93;2.90;;;11.90;99.90;;;;;;5010511;28;20173;-70
2023/08/27 02:36:11;;;;;;;5.00;2.60;;;12.00;99.90;;;;;;5011998;28;20173;-71
2023/08/27 02:38:37;;;;;;;5.33;3.03;;;12.00;99.90;;;;;;5013757;28;20247;-70
2023/08/27 02:41:02;;;;;;;5.53;2.60;;;12.00;99.90;;;;;;5014224;28;20184;-70
2023/08/27 02:43:28;;;;;;;6.00;2.60;;;12.00;99.90;;;;;;5014197;28;20176;-70
2023/08/27 02:45:54;;;;;;;4.90;2.70;;;11.90;99.90;;;;;;5014276;28;20188;-71
2023/08/27 02:48:19;;;;;;;5.17;3.33;;;11.90;99.90;;;;;;5013720;28;20196;-72
2023/08/27 02:50:45;;;;;;;6.57;3.20;;;11.90;99.90;;;;;;5012826;28;20255;-70
2023/08/27 02:53:10;;;;;;;4.83;2.83;;;11.90;99.90;;;;;;5014099;28;20200;-71
2023/08/27 02:55:36;;;;;;;5.73;3.23;;;11.90;99.90;;;;;;5013890;28;20264;-71
2023/08/27 02:58:02;;;;;;;4.77;2.90;;;11.90;99.90;;;;;;5013401;28;20204;-71
2023/08/27 03:00:27;;;;;;;6.57;3.50;;;11.90;99.90;;;;;;5012602;28;20276;-70
2023/08/27 03:02:53;;;;;;;5.20;3.10;;;11.90;99.90;;;;;;4996534;28;20734;-71
2023/08/27 03:05:19;;;;;;;4.33;2.60;;;11.90;99.90;;;;;;4996343;28;20185;-71
2023/08/27 03:07:44;;;;;;;2.90;2.03;;;11.90;99.90;;;;;;5011975;28;20176;-70
2023/08/27 03:10:10;;;;;;;4.30;2.27;;;11.90;99.90;;;;;;5012427;28;20196;-71
2023/08/27 03:12:35;;;;;;;4.27;2.10;;;11.90;99.90;;;;;;5012219;28;20196;-70
2023/08/27 03:15:02;;;;;;;7.13;2.17;;;11.80;99.90;;;;;;5012513;28;20639;-70
2023/08/27 03:17:27;;;;;;;3.10;2.17;;;11.90;99.90;;;;;;5013137;28;20180;-69
2023/08/27 03:19:53;;;;;;;3.00;2.10;;;11.90;99.90;;;;;;5013625;28;20247;-70
2023/08/27 03:22:18;;;;;;;5.67;2.53;;;11.90;99.90;;;;;;5013506;28;20238;-70
2023/08/27 03:24:44;;;;;;;3.57;2.43;;;11.80;99.90;;;;;;5013547;28;20188;-70
2023/08/27 03:27:09;;;;;;;5.23;2.57;;;11.90;99.90;;;;;;5012958;28;20242;-70
2023/08/27 03:29:35;;;;;;;7.27;2.13;;;11.80;99.90;;;;;;5013323;28;20224;-71
2023/08/27 03:32:00;;;;;;;3.13;2.10;;;11.80;99.90;;;;;;5013346;28;20205;-71
2023/08/27 03:34:26;;;;;;;5.50;2.27;;;11.80;99.90;;;;;;5013487;28;20184;-70
2023/08/27 03:36:51;;;;;;;5.13;2.20;;;11.80;99.90;;;;;;5012936;28;20185;-71
2023/08/27 03:39:17;;;;;;;4.77;2.40;;;11.80;99.90;;;;;;5013208;28;20200;-71
2023/08/27 03:41:42;;;;;;;3.57;1.90;;;11.80;99.90;;;;;;5012968;28;20191;-71
2023/08/27 03:44:08;;;;;;;5.13;2.20;;;11.80;99.90;;;;;;5013291;28;20184;-70
2023/08/27 03:46:33;;;;;;;4.13;2.30;;;11.80;99.90;;;;;;5013218;28;20184;-72
2023/08/27 03:49:00;;;;;;;3.80;2.23;;;11.80;99.90;;;;;;5010037;28;20200;-71
2023/08/27 03:51:28;;;;;;;5.03;2.23;;;11.80;99.90;;;;;;5011919;28;20707;-70
2023/08/27 03:53:57;;;;;;;4.13;2.20;;;11.80;99.90;;;;;;5013032;28;20168;-70
2023/08/27 03:56:23;;;;;;;3.93;2.27;;;11.70;99.90;;;;;;5012902;28;20173;-70
2023/08/27 03:58:48;;;;;;;5.33;2.17;;;11.80;99.90;;;;;;5012194;28;20364;-70
2023/08/27 04:01:14;;;;;;;2.77;2.17;;;11.80;99.90;;;;;;5012895;28;20172;-71
2023/08/27 04:03:40;;;;;;;6.90;2.30;;;11.80;99.90;;;;;;5011976;28;20601;-71
2023/08/27 04:06:08;;;;;;;9.37;2.53;;;11.80;99.90;;;;;;5011631;28;20161;-70
2023/08/27 04:08:34;;;;;;;7.50;2.30;;;11.80;99.90;;;;;;4994608;28;20180;-69
2023/08/27 04:11:00;;;;;;;7.63;2.43;;;11.70;99.90;;;;;;5012404;28;20768;-71
2023/08/27 04:13:26;;;;;;;6.83;2.50;;;11.70;99.90;;;;;;5012782;28;20227;-70
2023/08/27 04:16:06;;;;;;;4.47;2.37;;;11.70;99.90;;;;;;5012626;28;20185;-70
2023/08/27 04:18:34;;;;;;;5.70;2.37;;;11.70;99.90;;;;;;4994628;28;20685;-70
2023/08/27 04:21:00;;;;;;;3.40;2.17;;;11.70;99.90;;;;;;5012216;28;20195;-71
2023/08/27 04:23:26;;;;;;;4.07;2.03;;;11.70;99.90;;;;;;5012490;28;20638;-70
2023/08/27 04:25:52;;;;;;;4.10;1.83;;;11.70;99.90;;;;;;5012319;28;20599;-70
2023/08/27 04:28:17;;;;;;;2.93;2.10;;;11.70;99.90;;;;;;5011755;28;20214;-71
2023/08/27 04:30:43;;;;;;;3.80;2.10;;;11.70;99.90;;;;;;5010907;28;20185;-70
2023/08/27 04:33:10;;;;;;;10.97;2.27;;;11.70;99.90;;;;;;5012411;28;20708;-70
2023/08/27 04:35:36;;;;;;;3.80;2.47;;;11.70;99.90;;;;;;5011001;28;20204;-70
2023/08/27 04:38:03;;;;;;;4.80;2.47;;;11.70;99.90;;;;;;5010353;28;20215;-70
2023/08/27 04:40:28;;;;;;;4.80;2.70;;;11.70;99.90;;;;;;5012073;28;20279;-70
2023/08/27 04:42:54;;;;;;;4.17;2.27;;;11.70;99.90;;;;;;5012033;28;20276;-70
2023/08/27 04:45:19;;;;;;;3.60;2.40;;;11.70;99.90;;;;;;5012306;28;20223;-70
2023/08/27 04:47:45;;;;;;;4.23;2.23;;;11.70;99.90;;;;;;5011661;28;20184;-71
2023/08/27 04:50:10;;;;;;;5.30;2.70;;;11.70;99.90;;;;;;5012001;28;20200;-71
2023/08/27 04:52:36;;;;;;;4.33;2.40;;;11.70;99.90;;;;;;5011009;28;20208;-71
2023/08/27 04:55:06;;;;;;;5.60;2.63;;;11.70;99.90;;;;;;5009551;28;20180;-71
2023/08/27 04:57:35;;;;;;;13.07;2.30;;;11.70;99.90;;;;;;5009674;28;20192;-70
2023/08/27 05:00:04;;;;;;;4.33;2.30;;;11.60;99.90;;;;;;4993797;28;20275;-71
2023/08/27 05:02:30;;;;;;;4.33;2.67;;;11.70;99.90;;;;;;5009765;28;20598;-69
2023/08/27 05:04:55;;;;;;;5.43;2.63;;;11.70;99.90;;;;;;5010348;28;20237;-72
2023/08/27 05:07:21;;;;;;;4.67;2.70;;;11.70;99.90;;;;;;5010679;28;20227;-72
2023/08/27 05:09:46;;;;;;;9.13;2.53;;;11.70;99.90;;;;;;5011020;28;20224;-70
2023/08/27 05:12:12;;;;;;;8.30;2.50;;;11.70;99.90;;;;;;5009691;28;20584;-71
2023/08/27 05:14:37;;;;;;;7.87;2.30;;;11.70;99.90;;;;;;5011156;28;20219;-72
2023/08/27 05:17:03;;;;;;;10.23;2.40;;;11.70;99.90;;;;;;5010624;28;20975;-71
2023/08/27 05:19:28;;;;;;;5.97;2.43;;;11.70;99.90;;;;;;5009507;28;20634;-70
2023/08/27 05:21:54;;;;;;;3.00;2.23;;;11.70;99.90;;;;;;5010866;28;20195;-71
2023/08/27 05:24:20;;;;;;;3.63;2.47;;;11.60;99.90;;;;;;5010890;28;20200;-71
2023/08/27 05:26:45;;;;;;;5.93;2.20;;;11.60;99.90;;;;;;5010254;28;20538;-70
2023/08/27 05:29:11;;;;;;;4.17;2.67;;;11.60;99.90;;;;;;5010764;28;20657;-71
2023/08/27 05:31:36;;;;;;;5.23;2.23;;;11.60;99.90;;;;;;5010895;28;20212;-70
2023/08/27 05:34:02;;;;;;;3.67;2.37;;;11.60;99.90;;;;;;5010263;28;20191;-71
2023/08/27 05:36:27;;;;;;;3.93;2.20;;;11.70;99.90;;;;;;4994687;28;20177;-70
2023/08/27 05:38:53;;;;;;;4.30;2.27;;;11.70;99.90;;;;;;4990636;28;20244;-71
2023/08/27 05:41:18;;;;;;;3.13;2.23;;;11.70;99.90;;;;;;4991037;28;20181;-71
2023/08/27 05:43:44;;;;;;;6.23;2.70;;;11.70;99.90;;;;;;4990924;28;20185;-71
2023/08/27 05:46:10;;;;;;;4.40;2.10;;;11.80;99.90;;;;;;4990753;28;20185;-71
2023/08/27 05:48:37;;;;;;;7.83;3.10;;;11.70;99.90;;;;;;4990325;28;20263;-72
2023/08/27 05:51:03;;;;;;;5.03;2.10;;;11.80;99.90;;;;;;5005792;28;20561;-72
2023/08/27 05:53:28;;;;;;;3.07;2.13;;;11.90;99.90;;;;;;4992885;28;20611;-71
2023/08/27 05:55:54;;;;;;;3.23;2.13;;;11.90;99.90;;;;;;5016746;28;20243;-70
2023/08/27 05:58:19;;;;;;;3.73;2.27;;;12.00;99.90;;;;;;5009723;28;20259;-71
2023/08/27 06:00:45;;;;;;;3.77;2.10;;;12.10;99.90;;;;;;5010410;28;20204;-70
2023/08/27 06:03:10;;;;;;;4.20;2.30;;;12.10;99.90;;;;;;5010372;28;20181;-71
2023/08/27 06:05:36;;;;;;;3.67;2.07;;;12.20;99.90;;;;;;5010194;28;20544;-70
2023/08/27 06:08:03;;;;;;;3.70;2.43;;;12.20;99.90;;;;;;5009864;28;20177;-72
2023/08/27 06:10:29;;;;;;;4.40;2.70;;;12.30;99.90;;;;;;5010479;28;20458;-71
2023/08/27 06:12:57;;;;;;;3.90;2.50;;;12.30;99.90;;;;;;5014336;28;20196;-71
2023/08/27 06:15:23;;;;;;;8.50;3.10;;;12.40;99.90;;;;;;5013415;28;20230;-71
2023/08/27 06:17:49;;;;;;;7.63;3.00;;;12.50;99.90;;;;;;5013902;28;20541;-72
2023/08/27 06:20:14;;;;;;;5.77;3.37;;;12.70;99.90;;;;;;5013854;28;20295;-73
2023/08/27 06:22:40;;;;;;;4.63;2.70;;;12.80;99.90;;;;;;5029515;28;20592;-72
2023/08/27 06:25:06;;;;;;;10.57;2.80;;;12.80;99.90;;;;;;5013655;28;20192;-72
2023/08/27 06:27:32;;;;;;;5.53;2.40;;;12.90;99.90;;;;;;5013529;28;20642;-72
2023/08/27 06:29:58;;;;;;;7.80;2.33;;;13.00;99.90;;;;;;5012723;28;20224;-72
2023/08/27 06:32:23;;;;;;;37.90;32.77;;;13.00;99.90;;;;;;5029392;28;20215;-71
2023/08/27 06:34:49;;;;;;;4.33;3.20;;;13.20;99.90;;;;;;5014361;28;20560;-71
2023/08/27 06:37:14;;;;;;;3.50;2.17;;;13.20;99.90;;;;;;5013937;28;20588;-71
2023/08/27 06:39:40;;;;;;;5.73;2.43;;;13.40;99.90;;;;;;5013768;28;20239;-72
2023/08/27 06:42:06;;;;;;;4.13;2.50;;;13.50;99.90;;;;;;5014073;28;20216;-71
2023/08/27 06:44:31;;;;;;;5.70;2.13;;;13.60;99.90;;;;;;5014322;28;20188;-72
2023/08/27 06:46:57;;;;;;;2.93;2.20;;;13.70;99.90;;;;;;5013535;28;20180;-72
2023/08/27 06:49:23;;;;;;;5.90;2.47;;;13.90;99.90;;;;;;5012558;28;20262;-72
2023/08/27 06:51:49;;;;;;;6.50;2.50;;;13.90;99.90;;;;;;5013963;28;20697;-72
2023/08/27 06:54:14;;;;;;;5.83;2.83;;;14.10;99.90;;;;;;5012366;28;20208;-71
2023/08/27 06:56:40;;;;;;;4.70;2.43;;;14.30;99.90;;;;;;5012451;28;20181;-72
2023/08/27 06:59:05;;;;;;;4.03;2.40;;;14.50;99.90;;;;;;5028271;28;20200;-72
2023/08/27 07:01:31;;;;;;;5.50;2.20;;;14.80;99.90;;;;;;5013871;28;20242;-72
2023/08/27 07:03:58;;;;;;;12.27;2.30;;;15.00;99.90;;;;;;5013333;28;20263;-72
2023/08/27 07:06:23;;;;;;;3.83;2.20;;;15.40;99.90;;;;;;5011974;28;20264;-72
2023/08/27 07:08:49;;;;;;;5.53;2.00;;;15.70;99.90;;;;;;5027949;28;20431;-72
2023/08/27 07:11:16;;;;;;;5.97;2.03;;;15.90;99.90;;;;;;5013085;28;20204;-72
2023/08/27 07:13:42;;;;;;;3.60;2.07;;;16.00;99.90;;;;;;5013309;28;20260;-72
2023/08/27 07:16:07;;;;;;;7.73;2.63;;;16.00;99.90;;;;;;5028355;28;20299;-72
2023/08/27 07:18:33;;;;;;;5.33;2.03;;;15.80;99.90;;;;;;5012554;28;20173;-73
2023/08/27 07:20:58;;;;;;;5.73;2.10;;;15.50;99.90;;;;;;5011880;28;20568;-72
2023/08/27 07:23:25;;;;;;;7.37;2.30;;;15.30;99.90;;;;;;5013214;28;20654;-72
2023/08/27 07:25:51;;;;;;;4.43;2.20;;;15.10;99.90;;;;;;5013034;28;20176;-72
2023/08/27 07:28:16;;;;;;;5.77;2.10;;;14.90;99.90;;;;;;5012342;28;20188;-72
2023/08/27 07:30:42;;;;;;;8.03;2.00;;;14.70;99.90;;;;;;5012898;28;20198;-73
2023/08/27 07:33:08;;;;;;;6.23;2.30;;;14.60;99.90;;;;;;5028144;28;20204;-72
2023/08/27 07:35:34;;;;;;;3.53;2.37;;;14.50;99.90;;;;;;5013254;28;20238;-72
2023/08/27 07:37:59;;;;;;;11.73;3.90;;;14.50;99.90;;;;;;5012611;28;20630;-72
2023/08/27 07:40:25;;;;;;;3.47;2.00;;;14.50;99.90;;;;;;5028242;28;20188;-72
2023/08/27 07:42:50;;;;;;;4.17;2.37;;;14.60;99.90;;;;;;5012938;28;20188;-70
2023/08/27 07:45:16;;;;;;;4.37;2.20;;;14.70;99.90;;;;;;5011532;28;20181;-71
2023/08/27 07:47:42;;;;;;;4.17;2.03;;;14.90;99.90;;;;;;5012268;28;20540;-70
2023/08/27 07:50:07;;;;;;;5.40;2.20;;;15.00;99.90;;;;;;5013028;28;20704;-72
2023/08/27 07:52:33;;;;;;;5.07;2.77;;;15.10;99.90;;;;;;5013144;28;20705;-73
2023/08/27 07:54:58;;;;;;;3.27;2.23;;;15.10;99.90;;;;;;5013173;28;20176;-70
2023/08/27 07:57:24;;;;;;;6.30;2.50;;;15.10;99.90;;;;;;5009676;28;20433;-71
2023/08/27 07:59:51;;;;;;;4.83;2.47;;;15.10;99.90;;;;;;5012389;28;20192;-71
2023/08/27 08:02:17;;;;;;;5.57;2.47;;;15.00;99.90;;;;;;5012228;28;20184;-73
2023/08/27 08:04:43;;;;;;;5.40;2.30;;;14.90;99.90;;;;;;5012539;28;20179;-69
2023/08/27 08:07:09;;;;;;;3.63;2.03;;;14.80;99.90;;;;;;5011939;28;20180;-72
2023/08/27 08:09:35;;;;;;;4.00;2.30;;;14.80;99.90;;;;;;5012117;28;20283;-70
2023/08/27 08:12:00;;;;;;;9.20;2.93;;;14.80;99.90;;;;;;5012133;28;20685;-71
2023/08/27 08:14:26;;;;;;;6.67;2.57;;;14.70;99.90;;;;;;5012094;28;20176;-70
2023/08/27 08:16:53;;;;;;;6.73;2.97;;;14.70;99.90;;;;;;5011662;28;20177;-69
2023/08/27 08:19:19;;;;;;;4.87;2.60;;;14.80;99.90;;;;;;5026974;28;20255;-70
2023/08/27 08:21:45;;;;;;;7.00;2.80;;;14.90;99.90;;;;;;5010784;28;20188;-69
2023/08/27 08:24:10;;;;;;;8.07;3.10;;;14.90;99.90;;;;;;5027093;28;20677;-69
2023/08/27 08:26:36;;;;;;;7.33;2.70;;;14.90;99.90;;;;;;5011689;28;20173;-69
2023/08/27 08:29:02;;;;;;;6.67;2.80;;;14.90;99.90;;;;;;5011312;28;20266;-69
2023/08/27 08:31:28;;;;;;;4.67;2.30;;;15.00;99.90;;;;;;5011739;28;20196;-69
2023/08/27 08:33:53;;;;;;;5.63;2.67;;;15.30;99.90;;;;;;5011287;28;20665;-69
2023/08/27 08:36:19;;;;;;;5.50;2.63;;;15.60;99.90;;;;;;5012052;28;20177;-69
2023/08/27 08:38:44;;;;;;;12.63;3.23;;;15.90;99.90;;;;;;5026410;28;20204;-68
2023/08/27 08:41:10;;;;;;;7.20;3.13;;;16.10;99.90;;;;;;5011438;28;20192;-69
2023/08/27 08:43:38;;;;;;;3.93;2.73;;;16.50;99.90;;;;;;5011602;28;20169;-70
2023/08/27 08:46:06;;;;;;;6.50;2.63;;;16.80;99.90;;;;;;5026824;28;20203;-70
2023/08/27 08:48:39;;;;;;;3.23;2.10;;;17.10;99.90;;;;;;5011005;28;20180;-70
2023/08/27 08:51:06;;;;;;;4.70;2.00;;;17.60;99.90;;;;;;5026274;28;20222;-70
2023/08/27 08:53:35;;;;;;;6.40;2.67;;;18.70;99.90;;;;;;5011383;28;20288;-70
2023/08/27 08:56:02;;;;;;;3.57;1.90;;;19.30;99.90;;;;;;5011551;28;20176;-69
2023/08/27 08:58:30;;;;;;;2.90;1.47;;;20.20;99.90;;;;;;5025374;28;20168;-69
2023/08/27 09:00:56;;;;;;;4.13;1.50;;;21.20;99.90;;;;;;5026008;28;20272;-71
2023/08/27 09:03:21;;;;;;;3.07;1.40;;;22.50;99.90;;;;;;5009998;28;20279;-70
2023/08/27 09:05:47;;;;;;;1.93;1.30;;;23.20;99.90;;;;;;5025226;28;20182;-70
2023/08/27 09:08:12;;;;;;;3.83;1.63;;;23.50;99.90;;;;;;5025662;28;20173;-71
2023/08/27 09:10:38;;;;;;;2.07;1.17;;;23.80;99.90;;;;;;5025970;28;20194;-70
2023/08/27 09:13:05;;;;;;;3.73;0.90;;;24.10;99.90;;;;;;5025929;28;20206;-70
2023/08/27 09:15:30;;;;;;;3.27;1.40;;;24.40;99.90;;;;;;5010943;28;20196;-70
2023/08/27 09:17:56;;;;;;;2.03;1.30;;;24.80;99.90;;;;;;5010490;28;20322;-70
2023/08/27 09:20:21;;;;;;;3.73;1.20;;;24.70;99.90;;;;;;5025972;28;20235;-70
2023/08/27 09:22:47;;;;;;;3.73;1.30;;;25.00;99.90;;;;;;5010908;28;20187;-70
2023/08/27 09:25:12;;;;;;;2.20;1.00;;;24.80;99.90;;;;;;5010935;28;20177;-70
2023/08/27 09:27:38;;;;;;;2.67;0.97;;;24.30;99.90;;;;;;5025312;28;20207;-70
2023/08/27 09:30:04;;;;;;;2.63;0.97;;;24.00;99.90;;;;;;5025768;28;20200;-69
2023/08/27 09:32:30;;;;;;;4.97;1.20;;;23.70;99.90;;;;;;5010515;28;20631;-69
2023/08/27 09:35:02;;;;;;;4.77;1.00;;;23.70;99.90;;;;;;5010734;28;20184;-69
2023/08/27 09:37:28;;;;;;;3.90;1.40;;;23.70;99.90;;;;;;5025307;28;20179;-70
2023/08/27 09:39:54;;;;;;;4.00;1.17;;;23.40;99.90;;;;;;5010472;28;20192;-69
2023/08/27 09:42:21;;;;;;;4.03;1.20;;;23.00;99.90;;;;;;5010489;28;20191;-70
2023/08/27 09:44:50;;;;;;;3.30;1.03;;;22.80;99.90;;;;;;5025365;28;20606;-70
2023/08/27 09:47:16;;;;;;;4.97;1.27;;;22.60;99.90;;;;;;5009575;28;20178;-70
2023/08/27 09:49:42;;;;;;;2.40;1.20;;;22.50;99.90;;;;;;5010479;28;20208;-70
2023/08/27 09:52:07;;;;;;;2.33;1.30;;;22.40;99.90;;;;;;5010337;28;20212;-69
2023/08/27 09:54:33;;;;;;;2.13;1.17;;;22.10;99.90;;;;;;5010245;28;20181;-69
2023/08/27 09:57:01;;;;;;;2.03;1.07;;;21.90;99.90;;;;;;5009859;28;20176;-69
2023/08/27 09:59:28;;;;;;;4.50;1.37;;;21.60;99.90;;;;;;5010329;28;20260;-69
2023/08/27 10:01:54;;;;;;;2.13;1.37;;;21.70;99.90;;;;;;5025372;28;20506;-71
2023/08/27 10:04:20;;;;;;;2.70;1.40;;;21.60;99.90;;;;;;5010289;28;20249;-70
2023/08/27 10:06:45;;;;;;;2.90;1.10;;;21.70;99.90;;;;;;5009566;28;20190;-70
2023/08/27 10:09:11;;;;;;;3.83;1.20;;;21.90;99.90;;;;;;5025274;28;20291;-70
2023/08/27 10:11:37;;;;;;;2.20;1.20;;;22.10;99.90;;;;;;5025113;28;20202;-70
2023/08/27 10:14:03;;;;;;;3.67;0.90;;;22.20;99.90;;;;;;5025429;28;20205;-71
2023/08/27 10:16:30;;;;;;;2.73;1.17;;;22.30;99.90;;;;;;5025446;28;20253;-70
2023/08/27 10:18:56;;;;;;;2.50;1.20;;;22.70;99.90;;;;;;5009615;28;20220;-70
2023/08/27 10:21:21;;;;;;;3.00;1.10;;;22.90;99.90;;;;;;5010072;28;20184;-70
2023/08/27 10:23:47;;;;;;;2.63;1.30;;;23.00;99.90;;;;;;5025168;28;20185;-70
2023/08/27 10:26:14;;;;;;;1.73;1.03;;;23.10;99.90;;;;;;5025128;28;20236;-70
2023/08/27 10:28:39;;;;;;;3.23;1.10;;;23.30;99.90;;;;;;5024364;28;20653;-70
2023/08/27 10:31:05;;;;;;;3.17;1.00;;;23.30;99.90;;;;;;5025232;28;20184;-71
2023/08/27 10:33:31;;;;;;;1.40;1.00;;;23.40;99.90;;;;;;5025231;28;20179;-71
2023/08/27 10:35:59;;;;;;;1.43;0.80;;;23.60;99.90;;;;;;5008673;28;20173;-71
2023/08/27 10:38:27;;;;;;;4.77;1.33;;;23.50;99.90;;;;;;5009272;28;20171;-71
2023/08/27 10:40:53;;;;;;;1.20;0.70;;;23.00;99.90;;;;;;5024801;28;20641;-70
2023/08/27 10:43:19;;;;;;;3.93;1.10;;;23.00;99.90;;;;;;5025004;28;20183;-70
2023/08/27 10:45:45;;;;;;;2.93;1.10;;;23.00;99.90;;;;;;5010001;28;20327;-70
2023/08/27 10:48:20;;;;;;;2.53;0.90;;;23.00;99.90;;;;;;5009178;28;20178;-70
2023/08/27 10:51:11;;;;;;;3.90;1.13;;;23.00;99.90;;;;;;5008854;28;20178;-70
2023/08/27 10:53:52;;;;;;;2.07;0.80;;;22.90;99.90;;;;;;5009952;28;20194;-70
2023/08/27 10:56:36;;;;;;;3.03;0.90;;;22.70;99.90;;;;;;5023435;28;20174;-70
2023/08/27 10:59:11;;;;;;;3.40;1.17;;;22.70;99.90;;;;;;5027633;28;20197;-70
2023/08/27 11:01:38;;;;;;;1.37;0.80;;;22.40;99.90;;;;;;5013576;28;20188;-70
2023/08/27 11:04:07;;;;;;;1.67;0.90;;;22.20;99.90;;;;;;5028478;28;20201;-70
2023/08/27 11:06:46;;;;;;;2.00;0.90;;;22.00;99.90;;;;;;5013479;28;20665;-69
2023/08/27 11:09:21;;;;;;;1.63;0.80;;;21.90;99.90;;;;;;5026705;28;20259;-70
2023/08/27 11:11:50;;;;;;;3.40;1.10;;;22.00;99.90;;;;;;5013127;28;20242;-70
2023/08/27 11:14:17;;;;;;;3.40;1.80;;;21.80;99.90;;;;;;5028479;28;20188;-70
2023/08/27 11:16:53;;;;;;;2.17;0.90;;;21.60;99.90;;;;;;5027783;28;20617;-70
2023/08/27 11:19:28;;;;;;;1.83;0.80;;;21.50;99.90;;;;;;5026749;28;20188;-70
2023/08/27 11:22:18;;;;;;;1.63;0.87;;;21.40;99.90;;;;;;5027928;28;20172;-69
2023/08/27 11:24:48;;;;;;;0.83;0.60;;;21.30;99.90;;;;;;5026180;28;20643;-69
2023/08/27 11:27:17;;;;;;;2.00;0.60;;;21.10;99.90;;;;;;5026929;28;20172;-71
2023/08/27 11:29:44;;;;;;;2.07;0.97;;;21.30;99.90;;;;;;5012909;28;20227;-71
2023/08/27 11:32:11;;;;;;;3.20;0.90;;;21.70;99.90;;;;;;5012935;28;20585;-70
2023/08/27 11:34:38;;;;;;;2.13;0.63;;;22.00;99.90;;;;;;5012859;28;20272;-72
2023/08/27 11:37:04;;;;;;;1.17;0.60;;;22.40;99.90;;;;;;5027296;28;20166;-72
2023/08/27 11:39:29;;;;;;;1.60;0.90;;;22.60;99.90;;;;;;5011406;28;20686;-71
2023/08/27 11:41:55;;;;;;;3.00;0.83;;;22.70;99.90;;;;;;5011440;28;20184;-71
2023/08/27 11:44:21;;;;;;;1.20;0.70;;;22.60;99.90;;;;;;5027963;28;20597;-72
2023/08/27 11:46:47;;;;;;;1.70;0.80;;;22.60;99.90;;;;;;5027654;28;20231;-72
2023/08/27 11:49:14;;;;;;;2.70;0.60;;;22.70;99.90;;;;;;5010977;28;20201;-70
2023/08/27 11:51:41;;;;;;;1.10;0.70;;;22.90;99.90;;;;;;5012534;28;20577;-70
2023/08/27 11:54:10;;;;;;;2.30;0.83;;;23.00;99.90;;;;;;5012649;28;20177;-69
2023/08/27 11:56:36;;;;;;;1.33;0.60;;;22.90;99.90;;;;;;5028165;28;20185;-71
2023/08/27 11:59:03;;;;;;;2.27;0.90;;;22.70;99.90;;;;;;5030415;28;20198;-72
2023/08/27 12:01:29;;;;;;;2.10;0.70;;;22.70;99.90;;;;;;5011659;28;20179;-72
2023/08/27 12:03:54;;;;;;;2.17;0.80;;;22.80;99.90;;;;;;5011823;28;20196;-72
2023/08/27 12:06:24;;;;;;;3.90;0.80;;;22.90;99.90;;;;;;5026677;28;20204;-72
2023/08/27 12:08:53;;;;;;;2.00;0.63;;;23.00;99.90;;;;;;5025356;28;20204;-72
2023/08/27 12:11:19;;;;;;;5.07;0.90;;;22.90;99.90;;;;;;5011950;28;20188;-70
2023/08/27 12:13:49;;;;;;;1.87;0.77;;;23.00;99.90;;;;;;5027142;28;20178;-69
2023/08/27 12:16:15;;;;;;;141.63;52.83;;;23.20;99.90;;;;;;5026835;28;20259;-70
2023/08/27 12:18:44;;;;;;;3.50;1.50;;;23.20;99.90;;;;;;5026582;28;20652;-68
2023/08/27 12:21:09;;;;;;;5.27;0.90;;;23.40;99.90;;;;;;5006264;28;20191;-69
2023/08/27 12:23:35;;;;;;;3.13;0.80;;;23.50;99.90;;;;;;5009565;28;20184;-70
2023/08/27 12:26:03;;;;;;;1.63;0.77;;;23.50;99.90;;;;;;5011888;28;20186;-70
2023/08/27 12:28:30;;;;;;;1.97;0.90;;;23.60;99.90;;;;;;5009231;28;20656;-69
2023/08/27 12:30:59;;;;;;;4.47;0.83;;;23.60;99.90;;;;;;5011411;28;20176;-68
2023/08/27 12:33:41;;;;;;;1.10;0.70;;;23.40;99.90;;;;;;5011717;28;20295;-71
2023/08/27 12:36:07;;;;;;;1.20;0.80;;;23.40;99.90;;;;;;5026480;28;20172;-72
2023/08/27 12:38:36;;;;;;;10.00;5.73;;;23.50;99.90;;;;;;5026259;28;20673;-71
2023/08/27 12:41:01;;;;;;;1.90;0.87;;;23.50;99.90;;;;;;5011643;28;20552;-71
2023/08/27 12:43:27;;;;;;;2.37;0.80;;;23.50;99.90;;;;;;5011860;28;20184;-71